Volant, Pennsylvania
Current Conditions -  °F | °C
As of 12:56 PM on Sunday 25 Jan 2015 (Local Time) from KUCP Reporting Station
Light Snow Light Snow  
Wind Chill: 21°   Ceiling: 2500
Heat Index: 29°   Visibility: 5mi
Dew Point: 26°   Wind: 8mph
Humidity: 88%   Direction: 40°NE
Pressure: 29.82"   Gusts: NA
Location:  41.11°N, 80.26°W
Report Text: KUCP 251756Z AUTO 04007KT 5SM -SN BR SCT012 BKN025 M02/M03 A2982 RMK AO2 TSNO 50008 60000 T10161033 10005 21016 P0000 SLP123 $
Loading
Personal Weather Stations






























Interactive Weather Map New forecast layout! Learn more

10-Day Weather Forecast

Advertisements
Track Severe Weather on mobile